METAR Data
IDs: Format: Raw Decoded Include TAF

Data at: 1904 UTC 14 Dec 2018

KPSX 141853Z AUTO 29017G24KT 10SM OVC033 11/05 A3003 RMK AO2 PK WND 30026/1839 SLP168 T01110050
KPSX 141753Z AUTO 31016G21KT 10SM OVC035 12/05 A3005 RMK AO2 SLP177 T01170050 10122 20083 50013
KPSX 141653Z AUTO 30017G24KT 10SM SCT032 12/05 A3006 RMK AO2 SLP177 T01220050
KPSX 141553Z AUTO 29014G25KT 10SM OVC032 11/04 A3003 RMK AO2 SLP170 T01060044
KPSX 141453Z AUTO 30019G24KT 10SM SCT034 OVC047 10/04 A3002 RMK AO2 SLP164 T01000039 53021
KPSX 141353Z AUTO 29014KT 10SM BKN050 09/04 A2999 RMK AO2 PK WND 29026/1322 SLP155 T00890044
KPSX 141253Z AUTO 30017KT 10SM SCT035 OVC050 09/05 A2998 RMK AO2 PK WND 29031/1225 SLP150 T00940050
KPSX 141153Z AUTO 30018G28KT 10SM SCT034 OVC049 10/04 A2995 RMK AO2 PK WND 29031/1133 SLP143 T01000044 10111 20100 53017
KPSX 141053Z AUTO 29014G22KT 10SM OVC041 10/05 A2993 RMK AO2 PK WND 28028/0958 SLP136 T01000050
KPSX 140953Z AUTO 28011KT 10SM BKN043 OVC050 11/05 A2991 RMK AO2 PK WND 29026/0923 SLP128 T01060050
KPSX 140853Z AUTO 29014G24KT 10SM OVC045 11/04 A2990 RMK AO2 SLP126 T01110044 58001
KPSX 140753Z AUTO 28015G22KT 10SM OVC048 11/05 A2990 RMK AO2 SLP124 T01110050
KPSX 140653Z AUTO 26012KT 10SM OVC046 11/05 A2992 RMK AO2 SLP131 T01110050
KPSX 140553Z AUTO 26014KT 10SM OVC046 11/05 A2991 RMK AO2 SLP127 T01110050 10189 20111 402560111 50005
KPSX 140453Z AUTO 27011KT 10SM BKN049 11/04 A2991 RMK AO2 PK WND 28028/0404 SLP129 T01110044
KPSX 140353Z AUTO 28016G24KT 10SM CLR 12/05 A2990 RMK AO2 SLP124 T01170050
KPSX 140253Z AUTO 28015G21KT 10SM CLR 12/05 A2989 RMK AO2 PK WND 29030/0214 SLP122 T01220050 53035
KPSX 140220Z AUTO 29016G30KT 3SM HZ CLR 13/05 A2988 RMK AO2 PK WND 29030/0214 T01280050
KPSX 140153Z AUTO 28017G27KT 1 1/4SM HZ CLR 13/05 A2986 RMK AO2 PK WND 28032/0056 SLP110 T01330050
KPSX 140053Z AUTO 27022G33KT 1SM HZ CLR 17/06 A2982 RMK AO2 PK WND 25033/0047 SLP096 T01720056
KPSX 140037Z AUTO 26020G30KT 1 3/4SM HZ CLR 18/04 A2981 RMK AO2 PK WND 27030/0035 T01830044
KPSX 132353Z AUTO 25012KT 5SM HZ SCT110 19/08 A2979 RMK AO2 SLP087 T01940078 10256 20194 53025
KPSX 132253Z AUTO 28013G22KT 4SM HZ OVC090 21/08 A2976 RMK AO2 SLP078 T02110078
KPSX 132205Z AUTO 28012KT 3SM HZ BKN095 23/11 A2974 RMK AO2 T02280106
KPSX 132153Z AUTO 28012KT 1 3/4SM HZ SCT095 23/11 A2973 RMK AO2 SLP067 T02330106
KPSX 132136Z AUTO 29009G18KT 1 1/2SM HZ FEW095 24/11 A2973 RMK AO2 T02390111
KPSX 132128Z AUTO 28013KT 2 1/2SM HZ CLR 24/11 A2973 RMK AO2 T02440111
KPSX 132053Z AUTO 29016G24KT 4SM HZ CLR 25/11 A2972 RMK AO2 SLP062 T02500111 55015
KPSX 132022Z AUTO 29017G21KT 2 1/2SM HZ FEW055 26/13 A2972 RMK AO2 VIS 1 1/2V4 T02560133
KPSX 132000Z AUTO 27013G21KT 1 1/4SM HZ CLR 26/14 A2972 RMK AO2 T02560139
KPSX 131953Z AUTO 27013G21KT 2SM HZ CLR 25/13 A2971 RMK AO2 SLP061 T02500133
KPSX 131853Z AUTO 23010KT 9SM CLR 24/18 A2972 RMK AO2 SLP065 T02390178
KPSX 131753Z AUTO 19007KT 10SM CLR 21/17 A2976 RMK AO2 SLP077 T02060172 10217 20167 58009
KPSX 131653Z AUTO 23007KT 10SM CLR 21/18 A2979 RMK AO2 SLP086 T02110178
KPSX 131553Z AUTO 23008KT 10SM CLR 21/18 A2980 RMK AO2 SLP090 T02060178
KPSX 131353Z AUTO 00000KT 10SM CLR 17/16 A2978 RMK AO2 SLP085 T01670161
KPSX 131253Z AUTO 27005KT 10SM FEW110 18/17 A2974 RMK AO2 PRESRR SLP071 T01780172
KPSX 131153Z AUTO 19006KT 10SM CLR 18/17 A2970 RMK AO2 SLP056 60021 70022 T01780172 10194 20172 56024
KPSX 131053Z AUTO 18008KT 6SM BR SCT008 BKN110 18/18 A2972 RMK AO2 SLP064 T01780178
KPSX 131042Z AUTO 19006KT 6SM BR SCT009 BKN014 18/18 A2973 RMK AO2 T01830183
KPSX 131032Z AUTO 18008G15KT 6SM BR FEW007 SCT010 SCT015 18/18 A2972 RMK AO2 T01830183
KPSX 130953Z AUTO 20008KT 8SM CLR 18/18 A2974 RMK AO2 LTG DSNT SE RAE15 SLP069 P0000 T01830183
KPSX 130933Z AUTO 21010KT 7SM SCT012 SCT075 18/18 A2975 RMK AO2 LTG DSNT SE AND S RAE15 P0000 T01830183
KPSX 130919Z AUTO 21009KT 4SM BR SCT006 BKN013 BKN070 18/18 A2976 RMK AO2 LTG DSNT SE RAE15 P0000 T01780178
KPSX 130853Z AUTO 19012KT 5SM -RA BR FEW004 BKN007 OVC020 18/18 A2977 RMK AO2 LTG DSNT SE AND S RAB08 SLP080 P0021 60021 T01830183 56028
KPSX 130843Z AUTO 19013G21KT 4SM -RA BR FEW005 BKN015 OVC021 19/19 A2976 RMK AO2 LTG DSNT E-S RAB08 P0020 T01890189
KPSX 130831Z AUTO 16014KT 2 1/2SM +RA BR BKN017 BKN023 OVC029 19/19 A2977 RMK AO2 LTG DSNT N AND SE AND S RAB08 P0007 T01940189
KPSX 130819Z AUTO 15012KT 6SM VCTS RA BR SCT019 BKN027 OVC046 19/19 A2976 RMK AO2 LTG DSNT N AND NW RAB08 P0001 T01940189
KPSX 130753Z AUTO 14012KT 8SM SCT031 BKN042 OVC120 19/19 A2978 RMK AO2 LTG DSNT W-N SLP082 T01940189
KPSX 130712Z AUTO 15012KT 9SM BKN023 BKN031 OVC049 19/19 A2981 RMK AO2 T01940189